CheckWX is a tool to help pilots better visualize weather data.  It is not intended as a substitute for an official pre-flight weather briefing.

17:56:40 UTC

EGLL METAR
London Heathrow Airport
London, United Kingdom
Current

37 mins ago

EGLL 171720Z AUTO 20006KT 160V240 9999 FEW030/// //////CB 12/11 Q1004
Observed
Oct-17 @ 17:20 UTC
Wind
  • 200° at 6 KTS
Visibility
10,000+ meters
Flight Rules
VFR
Cloud Levels
  • Few at 3,000' AGL
Temperature
12°C / 54°F
Dewpoint
11°C / 52°F
Humidity
94%
Altimeter
29.65" Hg
Pressure
1003.92 hPa
Previous

1 hour ago

EGLL 171650Z AUTO 20009G20KT 160V250 9999 -RA FEW035/// SCT048/// //////CB 13/11 Q1004 TEMPO SHRA
Observed
Oct-17 @ 16:50 UTC
Wind
  • 200° at 9 KTS
  • Gusting to 20 KTS
Visibility
10,000+ meters
Flight Rules
VFR
Conditions
Light Rain
Cloud Levels
  • Few at 3,500' AGL
  • Scattered at 4,800' AGL
Temperature
13°C / 55°F
Dewpoint
11°C / 52°F
Humidity
88%
Altimeter
29.65" Hg
Pressure
1003.92 hPa
Previous

2 hours ago

EGLL 171620Z AUTO 20009KT 170V250 9999 SCT032/// //////CB 14/10 Q1004 TEMPO SHRA
Observed
Oct-17 @ 16:20 UTC
Wind
  • 200° at 9 KTS
Visibility
10,000+ meters
Flight Rules
VFR
Cloud Levels
  • Scattered at 3,200' AGL
Temperature
14°C / 57°F
Dewpoint
10°C / 50°F
Humidity
77%
Altimeter
29.65" Hg
Pressure
1003.92 hPa